sensor_id;sensor_type;location;lat;lon;timestamp;P1;durP1;ratioP1;P2;durP2;ratioP2
826;SDS011;395;48.132;11.608;2023-02-15T00:01:31;14.13;;;10.30;;
826;SDS011;395;48.132;11.608;2023-02-15T00:03:57;14.35;;;11.00;;
826;SDS011;395;48.132;11.608;2023-02-15T00:06:23;29.20;;;10.77;;
826;SDS011;395;48.132;11.608;2023-02-15T00:08:49;22.73;;;11.00;;
826;SDS011;395;48.132;11.608;2023-02-15T00:11:15;12.57;;;10.27;;
826;SDS011;395;48.132;11.608;2023-02-15T00:14:03;15.07;;;11.05;;
826;SDS011;395;48.132;11.608;2023-02-15T00:16:29;14.02;;;10.85;;
826;SDS011;395;48.132;11.608;2023-02-15T00:18:55;18.27;;;11.13;;
826;SDS011;395;48.132;11.608;2023-02-15T00:21:21;17.90;;;11.67;;
826;SDS011;395;48.132;11.608;2023-02-15T00:23:49;14.40;;;10.50;;
826;SDS011;395;48.132;11.608;2023-02-15T00:26:14;14.87;;;10.60;;
826;SDS011;395;48.132;11.608;2023-02-15T00:28:40;12.47;;;9.30;;
826;SDS011;395;48.132;11.608;2023-02-15T00:31:06;12.87;;;10.37;;
826;SDS011;395;48.132;11.608;2023-02-15T00:33:36;14.55;;;10.02;;
826;SDS011;395;48.132;11.608;2023-02-15T00:36:03;12.63;;;9.75;;
826;SDS011;395;48.132;11.608;2023-02-15T00:38:31;12.63;;;9.88;;
826;SDS011;395;48.132;11.608;2023-02-15T00:40:58;15.30;;;9.48;;
826;SDS011;395;48.132;11.608;2023-02-15T00:43:26;12.55;;;9.60;;
826;SDS011;395;48.132;11.608;2023-02-15T00:45:52;13.98;;;11.00;;
826;SDS011;395;48.132;11.608;2023-02-15T00:48:18;11.83;;;9.37;;
826;SDS011;395;48.132;11.608;2023-02-15T00:50:45;11.88;;;9.00;;
826;SDS011;395;48.132;11.608;2023-02-15T00:53:14;19.73;;;10.60;;
826;SDS011;395;48.132;11.608;2023-02-15T00:55:40;11.70;;;9.43;;
826;SDS011;395;48.132;11.608;2023-02-15T00:58:06;15.38;;;10.57;;
826;SDS011;395;48.132;11.608;2023-02-15T01:00:33;13.95;;;10.05;;
826;SDS011;395;48.132;11.608;2023-02-15T01:02:59;10.27;;;9.10;;
826;SDS011;395;48.132;11.608;2023-02-15T01:05:25;14.02;;;9.65;;
826;SDS011;395;48.132;11.608;2023-02-15T01:07:51;13.73;;;9.70;;
826;SDS011;395;48.132;11.608;2023-02-15T01:10:17;11.27;;;10.07;;
826;SDS011;395;48.132;11.608;2023-02-15T01:12:42;12.17;;;9.37;;
826;SDS011;395;48.132;11.608;2023-02-15T01:15:08;16.17;;;9.73;;
826;SDS011;395;48.132;11.608;2023-02-15T01:17:34;13.20;;;9.63;;
826;SDS011;395;48.132;11.608;2023-02-15T01:20:00;9.80;;;8.37;;
826;SDS011;395;48.132;11.608;2023-02-15T01:22:26;11.10;;;9.15;;
826;SDS011;395;48.132;11.608;2023-02-15T01:24:51;10.73;;;9.63;;
826;SDS011;395;48.132;11.608;2023-02-15T01:27:17;13.90;;;9.20;;
826;SDS011;395;48.132;11.608;2023-02-15T01:29:43;13.57;;;9.82;;
826;SDS011;395;48.132;11.608;2023-02-15T01:32:09;14.63;;;9.63;;
826;SDS011;395;48.132;11.608;2023-02-15T01:34:34;13.90;;;9.17;;
826;SDS011;395;48.132;11.608;2023-02-15T01:37:00;11.50;;;9.20;;
826;SDS011;395;48.132;11.608;2023-02-15T01:39:26;12.90;;;9.53;;
826;SDS011;395;48.132;11.608;2023-02-15T01:41:51;13.30;;;9.27;;
826;SDS011;395;48.132;11.608;2023-02-15T01:47:18;12.73;;;9.95;;
826;SDS011;395;48.132;11.608;2023-02-15T01:53:24;11.57;;;8.85;;
826;SDS011;395;48.132;11.608;2023-02-15T01:55:35;13.90;;;9.82;;
826;SDS011;395;48.132;11.608;2023-02-15T01:58:04;11.40;;;8.88;;
826;SDS011;395;48.132;11.608;2023-02-15T02:00:30;15.55;;;10.48;;
826;SDS011;395;48.132;11.608;2023-02-15T02:02:57;12.05;;;9.43;;
826;SDS011;395;48.132;11.608;2023-02-15T02:05:24;13.03;;;9.90;;
826;SDS011;395;48.132;11.608;2023-02-15T02:07:50;11.73;;;9.60;;
826;SDS011;395;48.132;11.608;2023-02-15T02:10:21;12.15;;;10.05;;
826;SDS011;395;48.132;11.608;2023-02-15T02:12:49;16.27;;;10.48;;
826;SDS011;395;48.132;11.608;2023-02-15T02:15:40;13.52;;;9.85;;
826;SDS011;395;48.132;11.608;2023-02-15T02:18:19;12.10;;;9.57;;
826;SDS011;395;48.132;11.608;2023-02-15T02:26:31;14.10;;;10.50;;
826;SDS011;395;48.132;11.608;2023-02-15T02:36:56;11.27;;;9.27;;
826;SDS011;395;48.132;11.608;2023-02-15T02:39:41;11.20;;;8.80;;
826;SDS011;395;48.132;11.608;2023-02-15T02:42:24;11.70;;;9.82;;
826;SDS011;395;48.132;11.608;2023-02-15T02:45:03;14.15;;;8.75;;
826;SDS011;395;48.132;11.608;2023-02-15T02:47:52;16.05;;;10.27;;
826;SDS011;395;48.132;11.608;2023-02-15T02:50:31;16.63;;;11.25;;
826;SDS011;395;48.132;11.608;2023-02-15T02:52:57;11.97;;;10.67;;
826;SDS011;395;48.132;11.608;2023-02-15T02:58:12;15.15;;;10.38;;
826;SDS011;395;48.132;11.608;2023-02-15T03:00:55;12.10;;;10.23;;
826;SDS011;395;48.132;11.608;2023-02-15T03:03:34;17.25;;;10.55;;
826;SDS011;395;48.132;11.608;2023-02-15T03:06:05;15.20;;;10.43;;
826;SDS011;395;48.132;11.608;2023-02-15T03:08:37;18.05;;;10.32;;
826;SDS011;395;48.132;11.608;2023-02-15T03:11:08;12.15;;;10.00;;
826;SDS011;395;48.132;11.608;2023-02-15T03:13:36;15.38;;;10.85;;
826;SDS011;395;48.132;11.608;2023-02-15T03:16:02;12.32;;;9.60;;
826;SDS011;395;48.132;11.608;2023-02-15T03:18:51;14.07;;;9.82;;
826;SDS011;395;48.132;11.608;2023-02-15T03:21:51;17.80;;;10.95;;
826;SDS011;395;48.132;11.608;2023-02-15T03:24:32;14.15;;;10.25;;
826;SDS011;395;48.132;11.608;2023-02-15T03:27:07;15.93;;;10.82;;
826;SDS011;395;48.132;11.608;2023-02-15T03:29:37;20.25;;;11.10;;
826;SDS011;395;48.132;11.608;2023-02-15T03:32:05;19.73;;;10.27;;
826;SDS011;395;48.132;11.608;2023-02-15T03:34:33;13.57;;;11.23;;
826;SDS011;395;48.132;11.608;2023-02-15T03:42:49;12.50;;;9.45;;
826;SDS011;395;48.132;11.608;2023-02-15T03:45:22;14.20;;;10.57;;
826;SDS011;395;48.132;11.608;2023-02-15T03:47:52;15.07;;;10.65;;
826;SDS011;395;48.132;11.608;2023-02-15T03:50:25;14.88;;;11.07;;
826;SDS011;395;48.132;11.608;2023-02-15T03:53:15;20.33;;;10.50;;
826;SDS011;395;48.132;11.608;2023-02-15T03:55:48;22.55;;;11.43;;
826;SDS011;395;48.132;11.608;2023-02-15T03:58:15;17.95;;;10.80;;
826;SDS011;395;48.132;11.608;2023-02-15T04:00:59;14.15;;;10.82;;
826;SDS011;395;48.132;11.608;2023-02-15T04:03:54;16.77;;;10.95;;
826;SDS011;395;48.132;11.608;2023-02-15T04:06:24;15.77;;;11.00;;
826;SDS011;395;48.132;11.608;2023-02-15T04:08:49;14.17;;;10.13;;
826;SDS011;395;48.132;11.608;2023-02-15T04:11:33;12.25;;;9.80;;
826;SDS011;395;48.132;11.608;2023-02-15T04:13:59;15.30;;;10.97;;
826;SDS011;395;48.132;11.608;2023-02-15T04:16:45;13.93;;;10.57;;
826;SDS011;395;48.132;11.608;2023-02-15T04:19:10;13.03;;;10.00;;
826;SDS011;395;48.132;11.608;2023-02-15T04:21:54;12.38;;;9.98;;
826;SDS011;395;48.132;11.608;2023-02-15T04:24:38;15.85;;;10.82;;
826;SDS011;395;48.132;11.608;2023-02-15T04:27:22;12.68;;;10.52;;
826;SDS011;395;48.132;11.608;2023-02-15T04:29:48;16.20;;;11.67;;
826;SDS011;395;48.132;11.608;2023-02-15T04:32:14;14.30;;;9.95;;
826;SDS011;395;48.132;11.608;2023-02-15T04:34:40;13.90;;;10.27;;
826;SDS011;395;48.132;11.608;2023-02-15T04:37:06;12.60;;;9.83;;
826;SDS011;395;48.132;11.608;2023-02-15T04:39:31;16.37;;;11.30;;
826;SDS011;395;48.132;11.608;2023-02-15T04:41:57;18.73;;;11.10;;
826;SDS011;395;48.132;11.608;2023-02-15T04:44:23;15.43;;;10.60;;
826;SDS011;395;48.132;11.608;2023-02-15T04:46:49;13.27;;;11.05;;
826;SDS011;395;48.132;11.608;2023-02-15T04:49:15;15.70;;;10.83;;
826;SDS011;395;48.132;11.608;2023-02-15T04:51:40;14.20;;;10.40;;
826;SDS011;395;48.132;11.608;2023-02-15T04:54:06;12.87;;;9.90;;
826;SDS011;395;48.132;11.608;2023-02-15T04:56:32;15.27;;;10.20;;
826;SDS011;395;48.132;11.608;2023-02-15T04:58:59;13.50;;;10.65;;
826;SDS011;395;48.132;11.608;2023-02-15T05:01:25;12.53;;;10.17;;
826;SDS011;395;48.132;11.608;2023-02-15T05:03:51;14.77;;;10.90;;
826;SDS011;395;48.132;11.608;2023-02-15T05:06:16;16.93;;;11.73;;
826;SDS011;395;48.132;11.608;2023-02-15T05:08:42;16.93;;;12.20;;
826;SDS011;395;48.132;11.608;2023-02-15T05:11:08;14.03;;;11.03;;
826;SDS011;395;48.132;11.608;2023-02-15T05:13:34;14.03;;;11.27;;
826;SDS011;395;48.132;11.608;2023-02-15T05:15:59;18.90;;;11.57;;
826;SDS011;395;48.132;11.608;2023-02-15T05:18:25;15.37;;;10.90;;
826;SDS011;395;48.132;11.608;2023-02-15T05:20:50;12.73;;;9.97;;
826;SDS011;395;48.132;11.608;2023-02-15T05:23:16;17.90;;;10.90;;
826;SDS011;395;48.132;11.608;2023-02-15T05:25:46;12.17;;;10.27;;
826;SDS011;395;48.132;11.608;2023-02-15T05:28:34;18.15;;;10.45;;
826;SDS011;395;48.132;11.608;2023-02-15T05:31:06;14.20;;;10.18;;
826;SDS011;395;48.132;11.608;2023-02-15T05:33:40;13.75;;;10.38;;
826;SDS011;395;48.132;11.608;2023-02-15T05:36:06;13.50;;;10.38;;
826;SDS011;395;48.132;11.608;2023-02-15T05:38:32;12.48;;;10.13;;
826;SDS011;395;48.132;11.608;2023-02-15T05:40:58;12.18;;;9.93;;
826;SDS011;395;48.132;11.608;2023-02-15T05:43:24;13.73;;;10.30;;
826;SDS011;395;48.132;11.608;2023-02-15T05:45:52;14.18;;;10.70;;
826;SDS011;395;48.132;11.608;2023-02-15T05:48:19;12.95;;;11.00;;
826;SDS011;395;48.132;11.608;2023-02-15T05:50:46;18.60;;;11.13;;
826;SDS011;395;48.132;11.608;2023-02-15T05:53:21;14.32;;;10.98;;
826;SDS011;395;48.132;11.608;2023-02-15T05:55:46;15.20;;;10.93;;
826;SDS011;395;48.132;11.608;2023-02-15T05:58:12;12.63;;;10.87;;
826;SDS011;395;48.132;11.608;2023-02-15T06:00:39;13.87;;;11.73;;
826;SDS011;395;48.132;11.608;2023-02-15T06:03:04;15.68;;;11.02;;
826;SDS011;395;48.132;11.608;2023-02-15T06:05:30;14.53;;;11.07;;
826;SDS011;395;48.132;11.608;2023-02-15T06:07:56;13.03;;;11.03;;
826;SDS011;395;48.132;11.608;2023-02-15T06:10:21;11.93;;;10.50;;
826;SDS011;395;48.132;11.608;2023-02-15T06:12:47;14.70;;;10.30;;
826;SDS011;395;48.132;11.608;2023-02-15T06:15:12;13.37;;;10.10;;
826;SDS011;395;48.132;11.608;2023-02-15T06:17:40;13.93;;;10.70;;
826;SDS011;395;48.132;11.608;2023-02-15T06:20:07;20.02;;;10.95;;
826;SDS011;395;48.132;11.608;2023-02-15T06:22:33;14.65;;;10.75;;
826;SDS011;395;48.132;11.608;2023-02-15T06:24:59;17.20;;;11.03;;
826;SDS011;395;48.132;11.608;2023-02-15T06:27:25;15.27;;;11.10;;
826;SDS011;395;48.132;11.608;2023-02-15T06:29:50;17.20;;;11.80;;
826;SDS011;395;48.132;11.608;2023-02-15T06:32:16;15.73;;;12.00;;
826;SDS011;395;48.132;11.608;2023-02-15T06:34:41;14.80;;;11.07;;
826;SDS011;395;48.132;11.608;2023-02-15T06:37:07;16.90;;;11.77;;
826;SDS011;395;48.132;11.608;2023-02-15T06:39:33;13.77;;;11.45;;
826;SDS011;395;48.132;11.608;2023-02-15T06:41:59;16.00;;;11.10;;
826;SDS011;395;48.132;11.608;2023-02-15T06:44:25;16.27;;;11.07;;
826;SDS011;395;48.132;11.608;2023-02-15T06:46:50;14.55;;;11.20;;
826;SDS011;395;48.132;11.608;2023-02-15T06:49:16;15.87;;;12.00;;
826;SDS011;395;48.132;11.608;2023-02-15T06:51:42;16.30;;;11.07;;
826;SDS011;395;48.132;11.608;2023-02-15T06:54:07;15.33;;;12.27;;
826;SDS011;395;48.132;11.608;2023-02-15T06:56:33;17.50;;;12.07;;
826;SDS011;395;48.132;11.608;2023-02-15T06:58:59;15.10;;;11.40;;
826;SDS011;395;48.132;11.608;2023-02-15T07:01:24;16.23;;;11.23;;
826;SDS011;395;48.132;11.608;2023-02-15T07:03:50;14.80;;;11.00;;
826;SDS011;395;48.132;11.608;2023-02-15T07:06:16;16.90;;;12.60;;
826;SDS011;395;48.132;11.608;2023-02-15T07:08:41;15.57;;;12.00;;
826;SDS011;395;48.132;11.608;2023-02-15T07:11:07;14.07;;;11.53;;
826;SDS011;395;48.132;11.608;2023-02-15T07:13:51;15.43;;;11.40;;
826;SDS011;395;48.132;11.608;2023-02-15T07:16:18;14.90;;;11.23;;
826;SDS011;395;48.132;11.608;2023-02-15T07:18:44;16.10;;;11.57;;
826;SDS011;395;48.132;11.608;2023-02-15T07:21:10;16.90;;;11.73;;
826;SDS011;395;48.132;11.608;2023-02-15T07:23:36;18.43;;;12.70;;
826;SDS011;395;48.132;11.608;2023-02-15T07:26:03;14.93;;;11.18;;
826;SDS011;395;48.132;11.608;2023-02-15T07:28:30;15.63;;;11.18;;
826;SDS011;395;48.132;11.608;2023-02-15T07:30:56;17.52;;;12.60;;
826;SDS011;395;48.132;11.608;2023-02-15T07:33:22;17.20;;;12.03;;
826;SDS011;395;48.132;11.608;2023-02-15T07:35:52;18.02;;;12.50;;
826;SDS011;395;48.132;11.608;2023-02-15T07:38:19;19.48;;;12.63;;
826;SDS011;395;48.132;11.608;2023-02-15T07:40:46;15.95;;;12.02;;
826;SDS011;395;48.132;11.608;2023-02-15T07:43:12;21.08;;;12.93;;
826;SDS011;395;48.132;11.608;2023-02-15T07:45:38;17.17;;;11.80;;
826;SDS011;395;48.132;11.608;2023-02-15T07:48:05;14.82;;;11.68;;
826;SDS011;395;48.132;11.608;2023-02-15T07:50:31;15.10;;;11.48;;
826;SDS011;395;48.132;11.608;2023-02-15T07:52:57;14.88;;;11.93;;
826;SDS011;395;48.132;11.608;2023-02-15T07:55:23;18.73;;;12.63;;
826;SDS011;395;48.132;11.608;2023-02-15T07:57:50;22.17;;;13.15;;
826;SDS011;395;48.132;11.608;2023-02-15T08:00:17;19.23;;;13.05;;
826;SDS011;395;48.132;11.608;2023-02-15T08:02:53;18.92;;;11.95;;
826;SDS011;395;48.132;11.608;2023-02-15T08:05:41;18.45;;;12.18;;
826;SDS011;395;48.132;11.608;2023-02-15T08:08:08;16.58;;;12.55;;
826;SDS011;395;48.132;11.608;2023-02-15T08:11:04;16.70;;;11.32;;
826;SDS011;395;48.132;11.608;2023-02-15T08:16:33;15.32;;;11.30;;
826;SDS011;395;48.132;11.608;2023-02-15T08:19:19;17.08;;;11.40;;
826;SDS011;395;48.132;11.608;2023-02-15T08:21:47;15.77;;;11.00;;
826;SDS011;395;48.132;11.608;2023-02-15T08:24:19;15.27;;;11.88;;
826;SDS011;395;48.132;11.608;2023-02-15T08:26:46;13.75;;;10.82;;
826;SDS011;395;48.132;11.608;2023-02-15T08:29:13;13.93;;;11.45;;
826;SDS011;395;48.132;11.608;2023-02-15T08:31:39;14.02;;;11.15;;
826;SDS011;395;48.132;11.608;2023-02-15T08:34:07;14.45;;;11.35;;
826;SDS011;395;48.132;11.608;2023-02-15T08:36:34;15.90;;;11.82;;
826;SDS011;395;48.132;11.608;2023-02-15T08:39:00;17.80;;;12.20;;
826;SDS011;395;48.132;11.608;2023-02-15T08:41:29;21.05;;;11.70;;
826;SDS011;395;48.132;11.608;2023-02-15T08:43:57;15.20;;;12.02;;
826;SDS011;395;48.132;11.608;2023-02-15T08:46:26;14.18;;;11.05;;
826;SDS011;395;48.132;11.608;2023-02-15T08:48:53;15.77;;;11.70;;
826;SDS011;395;48.132;11.608;2023-02-15T08:51:20;18.58;;;12.85;;
826;SDS011;395;48.132;11.608;2023-02-15T08:53:52;19.15;;;13.13;;
826;SDS011;395;48.132;11.608;2023-02-15T08:56:21;17.27;;;11.75;;
826;SDS011;395;48.132;11.608;2023-02-15T08:58:52;19.15;;;13.05;;
826;SDS011;395;48.132;11.608;2023-02-15T09:01:20;17.63;;;12.60;;
826;SDS011;395;48.132;11.608;2023-02-15T09:03:51;17.70;;;13.10;;
826;SDS011;395;48.132;11.608;2023-02-15T09:06:20;16.10;;;12.70;;
826;SDS011;395;48.132;11.608;2023-02-15T09:08:47;18.27;;;12.82;;
826;SDS011;395;48.132;11.608;2023-02-15T09:11:14;18.15;;;13.45;;
826;SDS011;395;48.132;11.608;2023-02-15T09:13:47;17.05;;;12.50;;
826;SDS011;395;48.132;11.608;2023-02-15T09:16:17;16.83;;;14.15;;
826;SDS011;395;48.132;11.608;2023-02-15T09:18:43;17.03;;;12.83;;
826;SDS011;395;48.132;11.608;2023-02-15T09:21:10;19.53;;;13.57;;
826;SDS011;395;48.132;11.608;2023-02-15T09:23:40;18.27;;;13.82;;
826;SDS011;395;48.132;11.608;2023-02-15T09:26:11;18.25;;;14.52;;
826;SDS011;395;48.132;11.608;2023-02-15T09:28:38;18.20;;;12.95;;
826;SDS011;395;48.132;11.608;2023-02-15T09:31:08;19.00;;;13.18;;
826;SDS011;395;48.132;11.608;2023-02-15T09:33:34;18.80;;;14.52;;
826;SDS011;395;48.132;11.608;2023-02-15T09:36:02;21.98;;;14.90;;
826;SDS011;395;48.132;11.608;2023-02-15T09:38:28;23.27;;;15.55;;
826;SDS011;395;48.132;11.608;2023-02-15T09:41:02;20.47;;;14.47;;
826;SDS011;395;48.132;11.608;2023-02-15T09:46:55;21.92;;;13.85;;
826;SDS011;395;48.132;11.608;2023-02-15T09:49:45;20.00;;;14.70;;
826;SDS011;395;48.132;11.608;2023-02-15T09:52:43;24.83;;;14.18;;
826;SDS011;395;48.132;11.608;2023-02-15T10:01:02;21.35;;;15.80;;
826;SDS011;395;48.132;11.608;2023-02-15T10:03:50;21.63;;;16.33;;
826;SDS011;395;48.132;11.608;2023-02-15T10:09:09;19.63;;;15.10;;
826;SDS011;395;48.132;11.608;2023-02-15T10:28:29;22.25;;;16.58;;
826;SDS011;395;48.132;11.608;2023-02-15T10:31:27;22.58;;;16.02;;
826;SDS011;395;48.132;11.608;2023-02-15T10:34:11;21.17;;;16.00;;
826;SDS011;395;48.132;11.608;2023-02-15T10:39:16;20.80;;;16.15;;
826;SDS011;395;48.132;11.608;2023-02-15T10:41:54;21.75;;;15.95;;
826;SDS011;395;48.132;11.608;2023-02-15T10:44:37;18.85;;;14.65;;
826;SDS011;395;48.132;11.608;2023-02-15T10:47:38;20.13;;;13.98;;
826;SDS011;395;48.132;11.608;2023-02-15T10:55:47;19.60;;;15.65;;
826;SDS011;395;48.132;11.608;2023-02-15T11:01:23;17.70;;;14.43;;
826;SDS011;395;48.132;11.608;2023-02-15T11:06:51;21.45;;;15.02;;
826;SDS011;395;48.132;11.608;2023-02-15T11:09:21;18.52;;;14.07;;
826;SDS011;395;48.132;11.608;2023-02-15T11:11:50;25.63;;;14.07;;
826;SDS011;395;48.132;11.608;2023-02-15T11:15:01;16.27;;;13.13;;
826;SDS011;395;48.132;11.608;2023-02-15T11:17:09;18.38;;;13.90;;
826;SDS011;395;48.132;11.608;2023-02-15T11:19:42;17.08;;;13.63;;
826;SDS011;395;48.132;11.608;2023-02-15T11:22:23;19.00;;;13.88;;
826;SDS011;395;48.132;11.608;2023-02-15T11:24:49;19.85;;;14.40;;
826;SDS011;395;48.132;11.608;2023-02-15T11:27:17;14.95;;;12.40;;
826;SDS011;395;48.132;11.608;2023-02-15T11:32:34;21.95;;;15.90;;
826;SDS011;395;48.132;11.608;2023-02-15T11:35:10;18.42;;;13.13;;
826;SDS011;395;48.132;11.608;2023-02-15T11:37:48;21.17;;;16.48;;
826;SDS011;395;48.132;11.608;2023-02-15T11:40:53;18.92;;;14.48;;
826;SDS011;395;48.132;11.608;2023-02-15T11:43:39;19.85;;;15.20;;
826;SDS011;395;48.132;11.608;2023-02-15T11:46:24;17.65;;;13.90;;
826;SDS011;395;48.132;11.608;2023-02-15T11:48:49;19.17;;;13.88;;
826;SDS011;395;48.132;11.608;2023-02-15T11:51:16;15.63;;;12.90;;
826;SDS011;395;48.132;11.608;2023-02-15T11:53:44;20.08;;;14.45;;
826;SDS011;395;48.132;11.608;2023-02-15T11:56:14;18.40;;;15.10;;
826;SDS011;395;48.132;11.608;2023-02-15T12:01:24;17.58;;;14.63;;
826;SDS011;395;48.132;11.608;2023-02-15T12:04:04;19.42;;;15.60;;
826;SDS011;395;48.132;11.608;2023-02-15T12:06:48;18.73;;;15.18;;
826;SDS011;395;48.132;11.608;2023-02-15T12:09:36;18.30;;;14.35;;
826;SDS011;395;48.132;11.608;2023-02-15T12:12:24;19.00;;;13.85;;
826;SDS011;395;48.132;11.608;2023-02-15T12:14:59;17.88;;;14.10;;
826;SDS011;395;48.132;11.608;2023-02-15T12:17:31;15.70;;;13.18;;
826;SDS011;395;48.132;11.608;2023-02-15T12:20:04;20.25;;;14.90;;
826;SDS011;395;48.132;11.608;2023-02-15T12:22:37;17.02;;;14.32;;
826;SDS011;395;48.132;11.608;2023-02-15T12:25:11;21.33;;;15.80;;
826;SDS011;395;48.132;11.608;2023-02-15T12:27:51;18.35;;;14.00;;
826;SDS011;395;48.132;11.608;2023-02-15T12:30:19;18.27;;;15.00;;
826;SDS011;395;48.132;11.608;2023-02-15T12:35:29;18.98;;;14.60;;
826;SDS011;395;48.132;11.608;2023-02-15T12:40:35;18.25;;;13.52;;
826;SDS011;395;48.132;11.608;2023-02-15T12:43:01;20.25;;;14.98;;
826;SDS011;395;48.132;11.608;2023-02-15T12:45:34;20.55;;;14.68;;
826;SDS011;395;48.132;11.608;2023-02-15T12:48:08;29.98;;;15.65;;
826;SDS011;395;48.132;11.608;2023-02-15T12:50:39;22.17;;;14.73;;
826;SDS011;395;48.132;11.608;2023-02-15T12:55:58;26.20;;;15.13;;
826;SDS011;395;48.132;11.608;2023-02-15T12:58:32;29.98;;;15.98;;
826;SDS011;395;48.132;11.608;2023-02-15T13:03:37;18.42;;;13.77;;
826;SDS011;395;48.132;11.608;2023-02-15T13:06:17;23.58;;;15.15;;
826;SDS011;395;48.132;11.608;2023-02-15T13:08:46;22.52;;;15.20;;
826;SDS011;395;48.132;11.608;2023-02-15T13:11:15;22.90;;;15.32;;
826;SDS011;395;48.132;11.608;2023-02-15T13:13:50;25.23;;;14.90;;
826;SDS011;395;48.132;11.608;2023-02-15T13:16:40;28.33;;;14.75;;
826;SDS011;395;48.132;11.608;2023-02-15T13:19:18;22.67;;;14.05;;
826;SDS011;395;48.132;11.608;2023-02-15T13:22:06;24.05;;;14.88;;
826;SDS011;395;48.132;11.608;2023-02-15T13:24:41;26.95;;;14.73;;
826;SDS011;395;48.132;11.608;2023-02-15T13:27:10;24.10;;;15.07;;
826;SDS011;395;48.132;11.608;2023-02-15T13:29:44;25.33;;;13.85;;
826;SDS011;395;48.132;11.608;2023-02-15T13:32:30;22.30;;;13.85;;
826;SDS011;395;48.132;11.608;2023-02-15T13:35:01;30.73;;;14.63;;
826;SDS011;395;48.132;11.608;2023-02-15T13:40:22;23.90;;;14.07;;
826;SDS011;395;48.132;11.608;2023-02-15T13:43:43;21.63;;;14.30;;
826;SDS011;395;48.132;11.608;2023-02-15T13:48:51;24.60;;;15.93;;
826;SDS011;395;48.132;11.608;2023-02-15T14:13:58;20.30;;;14.37;;
826;SDS011;395;48.132;11.608;2023-02-15T14:16:39;20.45;;;13.82;;
826;SDS011;395;48.132;11.608;2023-02-15T14:19:23;25.02;;;15.13;;
826;SDS011;395;48.132;11.608;2023-02-15T14:22:53;22.95;;;14.63;;
826;SDS011;395;48.132;11.608;2023-02-15T14:28:16;21.88;;;14.90;;
826;SDS011;395;48.132;11.608;2023-02-15T14:30:53;21.33;;;14.60;;
826;SDS011;395;48.132;11.608;2023-02-15T14:33:25;18.88;;;13.70;;
826;SDS011;395;48.132;11.608;2023-02-15T14:35:54;20.05;;;14.65;;
826;SDS011;395;48.132;11.608;2023-02-15T14:41:20;26.90;;;15.00;;
826;SDS011;395;48.132;11.608;2023-02-15T14:49:22;24.33;;;16.43;;
826;SDS011;395;48.132;11.608;2023-02-15T14:59:25;25.38;;;15.27;;
826;SDS011;395;48.132;11.608;2023-02-15T15:02:08;22.17;;;15.80;;
826;SDS011;395;48.132;11.608;2023-02-15T15:07:25;21.63;;;16.90;;
826;SDS011;395;48.132;11.608;2023-02-15T15:12:42;32.35;;;16.23;;
826;SDS011;395;48.132;11.608;2023-02-15T15:23:39;21.47;;;16.47;;
826;SDS011;395;48.132;11.608;2023-02-15T15:45:44;27.03;;;18.30;;
826;SDS011;395;48.132;11.608;2023-02-15T15:53:59;32.78;;;19.55;;
826;SDS011;395;48.132;11.608;2023-02-15T15:56:28;29.88;;;18.15;;
826;SDS011;395;48.132;11.608;2023-02-15T15:59:00;28.85;;;17.70;;
826;SDS011;395;48.132;11.608;2023-02-15T16:01:35;32.50;;;16.50;;
826;SDS011;395;48.132;11.608;2023-02-15T16:04:13;25.30;;;17.17;;
826;SDS011;395;48.132;11.608;2023-02-15T16:06:47;19.65;;;15.10;;
826;SDS011;395;48.132;11.608;2023-02-15T16:09:16;21.40;;;16.40;;
826;SDS011;395;48.132;11.608;2023-02-15T16:11:47;21.40;;;15.40;;
826;SDS011;395;48.132;11.608;2023-02-15T16:14:16;26.55;;;16.27;;
826;SDS011;395;48.132;11.608;2023-02-15T16:17:03;20.03;;;15.77;;
826;SDS011;395;48.132;11.608;2023-02-15T16:19:32;24.93;;;17.17;;
826;SDS011;395;48.132;11.608;2023-02-15T16:22:01;19.77;;;15.43;;
826;SDS011;395;48.132;11.608;2023-02-15T16:24:42;20.23;;;14.70;;
826;SDS011;395;48.132;11.608;2023-02-15T16:28:05;23.02;;;16.38;;
826;SDS011;395;48.132;11.608;2023-02-15T16:30:32;19.98;;;16.20;;
826;SDS011;395;48.132;11.608;2023-02-15T16:35:31;20.20;;;15.73;;
826;SDS011;395;48.132;11.608;2023-02-15T16:37:58;22.20;;;15.90;;
826;SDS011;395;48.132;11.608;2023-02-15T16:42:57;23.48;;;16.83;;
826;SDS011;395;48.132;11.608;2023-02-15T16:45:26;21.63;;;16.38;;
826;SDS011;395;48.132;11.608;2023-02-15T16:47:55;21.27;;;16.25;;
826;SDS011;395;48.132;11.608;2023-02-15T16:50:26;23.92;;;17.80;;
826;SDS011;395;48.132;11.608;2023-02-15T16:52:56;21.80;;;16.48;;
826;SDS011;395;48.132;11.608;2023-02-15T16:55:24;21.40;;;16.40;;
826;SDS011;395;48.132;11.608;2023-02-15T16:57:51;25.90;;;16.83;;
826;SDS011;395;48.132;11.608;2023-02-15T17:00:22;23.42;;;17.08;;
826;SDS011;395;48.132;11.608;2023-02-15T17:02:58;34.25;;;24.55;;
826;SDS011;395;48.132;11.608;2023-02-15T17:05:30;31.73;;;22.33;;
826;SDS011;395;48.132;11.608;2023-02-15T17:08:16;25.98;;;19.60;;
826;SDS011;395;48.132;11.608;2023-02-15T17:10:45;22.92;;;17.73;;
826;SDS011;395;48.132;11.608;2023-02-15T17:13:28;25.02;;;17.50;;
826;SDS011;395;48.132;11.608;2023-02-15T17:18:26;21.55;;;15.93;;
826;SDS011;395;48.132;11.608;2023-02-15T17:20:54;20.40;;;15.77;;
826;SDS011;395;48.132;11.608;2023-02-15T17:23:22;23.83;;;16.08;;
826;SDS011;395;48.132;11.608;2023-02-15T17:25:56;24.02;;;15.40;;
826;SDS011;395;48.132;11.608;2023-02-15T17:28:29;19.42;;;15.15;;
826;SDS011;395;48.132;11.608;2023-02-15T17:30:56;18.27;;;14.63;;
826;SDS011;395;48.132;11.608;2023-02-15T17:33:40;24.48;;;15.35;;
826;SDS011;395;48.132;11.608;2023-02-15T17:41:45;21.25;;;15.73;;
826;SDS011;395;48.132;11.608;2023-02-15T17:44:12;25.35;;;18.50;;
826;SDS011;395;48.132;11.608;2023-02-15T17:46:40;21.55;;;16.45;;
826;SDS011;395;48.132;11.608;2023-02-15T17:49:06;23.45;;;18.23;;
826;SDS011;395;48.132;11.608;2023-02-15T17:51:36;23.98;;;17.20;;
826;SDS011;395;48.132;11.608;2023-02-15T17:54:02;23.45;;;15.90;;
826;SDS011;395;48.132;11.608;2023-02-15T17:57:11;21.20;;;16.27;;
826;SDS011;395;48.132;11.608;2023-02-15T17:59:38;20.42;;;14.60;;
826;SDS011;395;48.132;11.608;2023-02-15T18:02:22;19.40;;;15.07;;
826;SDS011;395;48.132;11.608;2023-02-15T18:05:15;22.58;;;15.77;;
826;SDS011;395;48.132;11.608;2023-02-15T18:08:00;31.30;;;22.00;;
826;SDS011;395;48.132;11.608;2023-02-15T18:10:44;29.40;;;19.48;;
826;SDS011;395;48.132;11.608;2023-02-15T18:13:28;20.95;;;16.15;;
826;SDS011;395;48.132;11.608;2023-02-15T18:15:54;22.10;;;16.00;;
826;SDS011;395;48.132;11.608;2023-02-15T18:18:20;22.05;;;16.67;;
826;SDS011;395;48.132;11.608;2023-02-15T18:20:46;22.10;;;16.70;;
826;SDS011;395;48.132;11.608;2023-02-15T18:23:15;22.93;;;17.00;;
826;SDS011;395;48.132;11.608;2023-02-15T18:25:41;26.15;;;15.35;;
826;SDS011;395;48.132;11.608;2023-02-15T18:28:10;22.05;;;15.70;;
826;SDS011;395;48.132;11.608;2023-02-15T18:30:36;18.47;;;15.50;;
826;SDS011;395;48.132;11.608;2023-02-15T18:33:09;20.73;;;15.65;;
826;SDS011;395;48.132;11.608;2023-02-15T18:35:55;19.40;;;15.10;;
826;SDS011;395;48.132;11.608;2023-02-15T18:38:20;19.80;;;14.30;;
826;SDS011;395;48.132;11.608;2023-02-15T18:40:46;18.70;;;13.90;;